sensor_id;sensor_type;location;lat;lon;timestamp;P1;durP1;ratioP1;P2;durP2;ratioP2
10705;SDS011;5404;42.656;23.336;2023-04-25T00:02:04;12.48;;;8.40;;
10705;SDS011;5404;42.656;23.336;2023-04-25T00:04:30;15.48;;;7.45;;
10705;SDS011;5404;42.656;23.336;2023-04-25T00:06:58;9.80;;;8.00;;
10705;SDS011;5404;42.656;23.336;2023-04-25T00:09:26;14.02;;;8.23;;
10705;SDS011;5404;42.656;23.336;2023-04-25T00:11:53;11.07;;;6.75;;
10705;SDS011;5404;42.656;23.336;2023-04-25T00:14:20;8.50;;;6.38;;
10705;SDS011;5404;42.656;23.336;2023-04-25T00:16:46;9.55;;;6.60;;
10705;SDS011;5404;42.656;23.336;2023-04-25T00:19:11;10.35;;;7.03;;
10705;SDS011;5404;42.656;23.336;2023-04-25T00:21:38;15.15;;;7.45;;
10705;SDS011;5404;42.656;23.336;2023-04-25T00:24:07;11.07;;;7.43;;
10705;SDS011;5404;42.656;23.336;2023-04-25T00:26:33;12.57;;;7.18;;
10705;SDS011;5404;42.656;23.336;2023-04-25T00:29:00;12.88;;;7.85;;
10705;SDS011;5404;42.656;23.336;2023-04-25T00:31:25;11.50;;;7.97;;
10705;SDS011;5404;42.656;23.336;2023-04-25T00:33:51;14.45;;;8.90;;
10705;SDS011;5404;42.656;23.336;2023-04-25T00:36:16;13.68;;;8.82;;
10705;SDS011;5404;42.656;23.336;2023-04-25T00:38:43;14.77;;;8.68;;
10705;SDS011;5404;42.656;23.336;2023-04-25T00:41:09;14.20;;;9.05;;
10705;SDS011;5404;42.656;23.336;2023-04-25T00:43:35;12.93;;;8.63;;
10705;SDS011;5404;42.656;23.336;2023-04-25T00:46:02;11.65;;;8.35;;
10705;SDS011;5404;42.656;23.336;2023-04-25T00:48:28;12.93;;;8.75;;
10705;SDS011;5404;42.656;23.336;2023-04-25T00:50:55;13.20;;;8.98;;
10705;SDS011;5404;42.656;23.336;2023-04-25T00:53:22;14.15;;;9.40;;
10705;SDS011;5404;42.656;23.336;2023-04-25T00:55:49;13.63;;;8.93;;
10705;SDS011;5404;42.656;23.336;2023-04-25T00:58:16;16.25;;;8.73;;
10705;SDS011;5404;42.656;23.336;2023-04-25T01:00:42;14.25;;;9.52;;
10705;SDS011;5404;42.656;23.336;2023-04-25T01:03:10;15.68;;;9.00;;
10705;SDS011;5404;42.656;23.336;2023-04-25T01:05:36;19.15;;;9.27;;
10705;SDS011;5404;42.656;23.336;2023-04-25T01:08:01;25.65;;;8.40;;
10705;SDS011;5404;42.656;23.336;2023-04-25T01:10:27;14.88;;;7.93;;
10705;SDS011;5404;42.656;23.336;2023-04-25T01:12:53;14.85;;;8.45;;
10705;SDS011;5404;42.656;23.336;2023-04-25T01:15:18;11.52;;;8.63;;
10705;SDS011;5404;42.656;23.336;2023-04-25T01:17:47;14.32;;;9.75;;
10705;SDS011;5404;42.656;23.336;2023-04-25T01:20:14;14.80;;;8.90;;
10705;SDS011;5404;42.656;23.336;2023-04-25T01:22:41;14.70;;;9.05;;
10705;SDS011;5404;42.656;23.336;2023-04-25T01:25:07;15.45;;;10.23;;
10705;SDS011;5404;42.656;23.336;2023-04-25T01:27:33;16.23;;;8.77;;
10705;SDS011;5404;42.656;23.336;2023-04-25T01:30:00;14.93;;;7.72;;
10705;SDS011;5404;42.656;23.336;2023-04-25T01:32:26;15.52;;;9.05;;
10705;SDS011;5404;42.656;23.336;2023-04-25T01:34:52;15.00;;;8.98;;
10705;SDS011;5404;42.656;23.336;2023-04-25T01:37:17;13.65;;;8.82;;
10705;SDS011;5404;42.656;23.336;2023-04-25T01:39:43;13.73;;;8.73;;
10705;SDS011;5404;42.656;23.336;2023-04-25T01:42:09;15.20;;;10.02;;
10705;SDS011;5404;42.656;23.336;2023-04-25T01:44:34;15.98;;;9.73;;
10705;SDS011;5404;42.656;23.336;2023-04-25T01:47:01;19.08;;;9.27;;
10705;SDS011;5404;42.656;23.336;2023-04-25T01:49:26;12.93;;;9.70;;
10705;SDS011;5404;42.656;23.336;2023-04-25T01:51:52;20.13;;;9.70;;
10705;SDS011;5404;42.656;23.336;2023-04-25T01:54:17;17.63;;;9.40;;
10705;SDS011;5404;42.656;23.336;2023-04-25T01:56:49;16.67;;;8.38;;
10705;SDS011;5404;42.656;23.336;2023-04-25T01:59:18;14.48;;;9.00;;
10705;SDS011;5404;42.656;23.336;2023-04-25T02:01:44;15.25;;;8.98;;
10705;SDS011;5404;42.656;23.336;2023-04-25T02:04:10;14.13;;;9.20;;
10705;SDS011;5404;42.656;23.336;2023-04-25T02:06:35;16.95;;;10.57;;
10705;SDS011;5404;42.656;23.336;2023-04-25T02:09:01;16.00;;;9.95;;
10705;SDS011;5404;42.656;23.336;2023-04-25T02:11:26;21.38;;;10.20;;
10705;SDS011;5404;42.656;23.336;2023-04-25T02:13:52;17.75;;;10.23;;
10705;SDS011;5404;42.656;23.336;2023-04-25T02:16:17;14.52;;;9.63;;
10705;SDS011;5404;42.656;23.336;2023-04-25T02:18:43;17.65;;;10.35;;
10705;SDS011;5404;42.656;23.336;2023-04-25T02:21:10;16.60;;;10.27;;
10705;SDS011;5404;42.656;23.336;2023-04-25T02:23:37;15.00;;;10.07;;
10705;SDS011;5404;42.656;23.336;2023-04-25T02:26:04;15.95;;;10.02;;
10705;SDS011;5404;42.656;23.336;2023-04-25T02:28:29;15.95;;;10.55;;
10705;SDS011;5404;42.656;23.336;2023-04-25T02:30:55;16.92;;;11.15;;
10705;SDS011;5404;42.656;23.336;2023-04-25T02:33:20;19.17;;;11.85;;
10705;SDS011;5404;42.656;23.336;2023-04-25T02:35:46;18.73;;;12.15;;
10705;SDS011;5404;42.656;23.336;2023-04-25T02:38:12;18.45;;;11.60;;
10705;SDS011;5404;42.656;23.336;2023-04-25T02:40:37;19.02;;;11.52;;
10705;SDS011;5404;42.656;23.336;2023-04-25T02:43:03;20.50;;;11.93;;
10705;SDS011;5404;42.656;23.336;2023-04-25T02:45:28;18.10;;;10.90;;
10705;SDS011;5404;42.656;23.336;2023-04-25T02:47:53;20.00;;;11.93;;
10705;SDS011;5404;42.656;23.336;2023-04-25T02:50:19;24.23;;;12.30;;
10705;SDS011;5404;42.656;23.336;2023-04-25T02:52:45;19.17;;;12.05;;
10705;SDS011;5404;42.656;23.336;2023-04-25T02:55:10;17.25;;;11.63;;
10705;SDS011;5404;42.656;23.336;2023-04-25T02:57:37;20.60;;;13.20;;
10705;SDS011;5404;42.656;23.336;2023-04-25T03:00:03;23.27;;;13.88;;
10705;SDS011;5404;42.656;23.336;2023-04-25T03:02:30;27.10;;;16.30;;
10705;SDS011;5404;42.656;23.336;2023-04-25T03:04:56;27.58;;;17.38;;
10705;SDS011;5404;42.656;23.336;2023-04-25T03:07:23;591.50;;;54.80;;
10705;SDS011;5404;42.656;23.336;2023-04-25T03:09:49;517.90;;;119.47;;
10705;SDS011;5404;42.656;23.336;2023-04-25T03:12:15;41.35;;;21.58;;
10705;SDS011;5404;42.656;23.336;2023-04-25T03:14:41;78.70;;;35.28;;
10705;SDS011;5404;42.656;23.336;2023-04-25T03:17:07;23.80;;;14.38;;
10705;SDS011;5404;42.656;23.336;2023-04-25T03:19:33;31.60;;;15.25;;
10705;SDS011;5404;42.656;23.336;2023-04-25T03:22:02;21.92;;;13.98;;
10705;SDS011;5404;42.656;23.336;2023-04-25T03:24:27;20.45;;;12.70;;
10705;SDS011;5404;42.656;23.336;2023-04-25T03:26:53;16.88;;;10.80;;
10705;SDS011;5404;42.656;23.336;2023-04-25T03:29:19;18.27;;;10.90;;
10705;SDS011;5404;42.656;23.336;2023-04-25T03:31:49;18.58;;;11.48;;
10705;SDS011;5404;42.656;23.336;2023-04-25T03:34:17;20.60;;;11.38;;
10705;SDS011;5404;42.656;23.336;2023-04-25T03:36:42;19.58;;;11.93;;
10705;SDS011;5404;42.656;23.336;2023-04-25T03:39:10;18.10;;;10.65;;
10705;SDS011;5404;42.656;23.336;2023-04-25T03:41:36;24.90;;;12.52;;
10705;SDS011;5404;42.656;23.336;2023-04-25T03:44:02;18.60;;;10.50;;
10705;SDS011;5404;42.656;23.336;2023-04-25T03:46:27;22.45;;;11.13;;
10705;SDS011;5404;42.656;23.336;2023-04-25T03:48:54;19.77;;;12.63;;
10705;SDS011;5404;42.656;23.336;2023-04-25T03:51:19;22.35;;;12.18;;
10705;SDS011;5404;42.656;23.336;2023-04-25T03:53:45;18.92;;;12.13;;
10705;SDS011;5404;42.656;23.336;2023-04-25T03:56:10;19.02;;;12.45;;
10705;SDS011;5404;42.656;23.336;2023-04-25T03:58:36;21.38;;;13.07;;
10705;SDS011;5404;42.656;23.336;2023-04-25T04:01:01;27.17;;;12.27;;
10705;SDS011;5404;42.656;23.336;2023-04-25T04:03:33;21.17;;;13.50;;
10705;SDS011;5404;42.656;23.336;2023-04-25T04:06:00;18.23;;;12.32;;
10705;SDS011;5404;42.656;23.336;2023-04-25T04:08:31;20.75;;;12.98;;
10705;SDS011;5404;42.656;23.336;2023-04-25T04:10:57;20.17;;;12.38;;
10705;SDS011;5404;42.656;23.336;2023-04-25T04:13:25;20.90;;;11.82;;
10705;SDS011;5404;42.656;23.336;2023-04-25T04:15:51;14.70;;;10.30;;
10705;SDS011;5404;42.656;23.336;2023-04-25T04:18:16;24.63;;;11.85;;
10705;SDS011;5404;42.656;23.336;2023-04-25T04:20:42;14.85;;;9.32;;
10705;SDS011;5404;42.656;23.336;2023-04-25T04:23:07;14.13;;;9.73;;
10705;SDS011;5404;42.656;23.336;2023-04-25T04:25:32;19.20;;;10.43;;
10705;SDS011;5404;42.656;23.336;2023-04-25T04:27:59;17.30;;;11.38;;
10705;SDS011;5404;42.656;23.336;2023-04-25T04:30:27;16.38;;;10.40;;
10705;SDS011;5404;42.656;23.336;2023-04-25T04:32:56;20.95;;;10.95;;
10705;SDS011;5404;42.656;23.336;2023-04-25T04:35:22;24.02;;;12.35;;
10705;SDS011;5404;42.656;23.336;2023-04-25T04:37:49;15.38;;;9.52;;
10705;SDS011;5404;42.656;23.336;2023-04-25T04:40:15;13.15;;;9.60;;
10705;SDS011;5404;42.656;23.336;2023-04-25T04:42:44;14.15;;;9.50;;
10705;SDS011;5404;42.656;23.336;2023-04-25T04:45:12;18.77;;;9.63;;
10705;SDS011;5404;42.656;23.336;2023-04-25T04:47:38;14.05;;;8.50;;
10705;SDS011;5404;42.656;23.336;2023-04-25T04:50:05;14.40;;;8.27;;
10705;SDS011;5404;42.656;23.336;2023-04-25T04:52:33;14.77;;;8.88;;
10705;SDS011;5404;42.656;23.336;2023-04-25T04:54:59;12.98;;;7.68;;
10705;SDS011;5404;42.656;23.336;2023-04-25T04:57:25;12.50;;;8.10;;
10705;SDS011;5404;42.656;23.336;2023-04-25T04:59:50;12.57;;;8.35;;
10705;SDS011;5404;42.656;23.336;2023-04-25T05:02:16;13.25;;;9.25;;
10705;SDS011;5404;42.656;23.336;2023-04-25T05:04:42;17.58;;;9.13;;
10705;SDS011;5404;42.656;23.336;2023-04-25T05:07:07;13.27;;;9.35;;
10705;SDS011;5404;42.656;23.336;2023-04-25T05:09:33;13.13;;;9.00;;
10705;SDS011;5404;42.656;23.336;2023-04-25T05:11:59;14.32;;;8.60;;
10705;SDS011;5404;42.656;23.336;2023-04-25T05:14:26;15.45;;;10.05;;
10705;SDS011;5404;42.656;23.336;2023-04-25T05:16:51;17.67;;;9.85;;
10705;SDS011;5404;42.656;23.336;2023-04-25T05:19:17;14.10;;;9.25;;
10705;SDS011;5404;42.656;23.336;2023-04-25T05:21:43;16.45;;;11.07;;
10705;SDS011;5404;42.656;23.336;2023-04-25T05:24:08;19.17;;;11.27;;
10705;SDS011;5404;42.656;23.336;2023-04-25T05:26:34;19.92;;;12.60;;
10705;SDS011;5404;42.656;23.336;2023-04-25T05:29:00;22.00;;;15.20;;
10705;SDS011;5404;42.656;23.336;2023-04-25T05:31:25;21.33;;;13.30;;
10705;SDS011;5404;42.656;23.336;2023-04-25T05:33:51;20.92;;;14.18;;
10705;SDS011;5404;42.656;23.336;2023-04-25T05:36:18;31.65;;;18.23;;
10705;SDS011;5404;42.656;23.336;2023-04-25T05:38:43;26.73;;;15.32;;
10705;SDS011;5404;42.656;23.336;2023-04-25T05:41:09;25.65;;;15.15;;
10705;SDS011;5404;42.656;23.336;2023-04-25T05:43:36;24.33;;;14.35;;
10705;SDS011;5404;42.656;23.336;2023-04-25T05:46:01;24.92;;;14.40;;
10705;SDS011;5404;42.656;23.336;2023-04-25T05:48:27;25.00;;;14.40;;
10705;SDS011;5404;42.656;23.336;2023-04-25T05:50:52;24.40;;;13.73;;
10705;SDS011;5404;42.656;23.336;2023-04-25T05:53:18;24.67;;;13.52;;
10705;SDS011;5404;42.656;23.336;2023-04-25T05:55:46;26.45;;;13.27;;
10705;SDS011;5404;42.656;23.336;2023-04-25T05:58:12;16.85;;;12.00;;
10705;SDS011;5404;42.656;23.336;2023-04-25T06:00:37;19.38;;;12.70;;
10705;SDS011;5404;42.656;23.336;2023-04-25T06:03:03;16.95;;;10.55;;
10705;SDS011;5404;42.656;23.336;2023-04-25T06:05:28;16.73;;;11.13;;
10705;SDS011;5404;42.656;23.336;2023-04-25T06:07:54;19.85;;;12.65;;
10705;SDS011;5404;42.656;23.336;2023-04-25T06:10:19;27.77;;;11.88;;
10705;SDS011;5404;42.656;23.336;2023-04-25T06:12:45;20.17;;;10.77;;
10705;SDS011;5404;42.656;23.336;2023-04-25T06:15:12;18.65;;;11.23;;
10705;SDS011;5404;42.656;23.336;2023-04-25T06:17:37;13.85;;;8.65;;
10705;SDS011;5404;42.656;23.336;2023-04-25T06:20:03;16.05;;;8.93;;
10705;SDS011;5404;42.656;23.336;2023-04-25T06:22:29;20.33;;;8.50;;
10705;SDS011;5404;42.656;23.336;2023-04-25T06:24:54;15.63;;;7.97;;
10705;SDS011;5404;42.656;23.336;2023-04-25T06:27:24;15.73;;;8.80;;
10705;SDS011;5404;42.656;23.336;2023-04-25T06:29:50;23.50;;;9.30;;
10705;SDS011;5404;42.656;23.336;2023-04-25T06:32:16;14.38;;;9.50;;
10705;SDS011;5404;42.656;23.336;2023-04-25T06:34:43;27.65;;;10.10;;
10705;SDS011;5404;42.656;23.336;2023-04-25T06:37:08;25.83;;;10.07;;
10705;SDS011;5404;42.656;23.336;2023-04-25T06:39:34;21.27;;;9.20;;
10705;SDS011;5404;42.656;23.336;2023-04-25T06:42:00;20.63;;;11.23;;
10705;SDS011;5404;42.656;23.336;2023-04-25T06:44:26;15.63;;;10.10;;
10705;SDS011;5404;42.656;23.336;2023-04-25T06:46:54;24.35;;;13.82;;
10705;SDS011;5404;42.656;23.336;2023-04-25T06:49:20;20.27;;;10.02;;
10705;SDS011;5404;42.656;23.336;2023-04-25T06:51:45;17.67;;;9.38;;
10705;SDS011;5404;42.656;23.336;2023-04-25T06:54:10;16.30;;;10.60;;
10705;SDS011;5404;42.656;23.336;2023-04-25T06:56:37;11.73;;;9.23;;
10705;SDS011;5404;42.656;23.336;2023-04-25T06:59:03;11.40;;;7.40;;
10705;SDS011;5404;42.656;23.336;2023-04-25T07:01:28;13.70;;;7.80;;
10705;SDS011;5404;42.656;23.336;2023-04-25T07:03:54;15.15;;;8.73;;
10705;SDS011;5404;42.656;23.336;2023-04-25T07:06:20;13.95;;;7.95;;
10705;SDS011;5404;42.656;23.336;2023-04-25T07:08:46;20.80;;;7.97;;
10705;SDS011;5404;42.656;23.336;2023-04-25T07:11:11;14.82;;;7.05;;
10705;SDS011;5404;42.656;23.336;2023-04-25T07:13:49;14.52;;;8.25;;
10705;SDS011;5404;42.656;23.336;2023-04-25T07:16:16;15.30;;;8.30;;
10705;SDS011;5404;42.656;23.336;2023-04-25T07:18:41;42.03;;;8.10;;
10705;SDS011;5404;42.656;23.336;2023-04-25T07:21:07;22.83;;;7.30;;
10705;SDS011;5404;42.656;23.336;2023-04-25T07:23:33;15.48;;;6.53;;
10705;SDS011;5404;42.656;23.336;2023-04-25T07:25:58;29.13;;;9.80;;
10705;SDS011;5404;42.656;23.336;2023-04-25T07:28:24;11.68;;;5.57;;
10705;SDS011;5404;42.656;23.336;2023-04-25T07:30:50;19.05;;;6.72;;
10705;SDS011;5404;42.656;23.336;2023-04-25T07:33:15;15.07;;;6.10;;
10705;SDS011;5404;42.656;23.336;2023-04-25T07:35:41;8.13;;;5.20;;
10705;SDS011;5404;42.656;23.336;2023-04-25T07:38:06;9.60;;;4.97;;
10705;SDS011;5404;42.656;23.336;2023-04-25T07:40:32;12.68;;;5.25;;
10705;SDS011;5404;42.656;23.336;2023-04-25T07:42:59;14.10;;;5.78;;
10705;SDS011;5404;42.656;23.336;2023-04-25T07:45:24;25.65;;;6.38;;
10705;SDS011;5404;42.656;23.336;2023-04-25T07:47:51;13.00;;;5.43;;
10705;SDS011;5404;42.656;23.336;2023-04-25T07:50:16;10.77;;;6.28;;
10705;SDS011;5404;42.656;23.336;2023-04-25T07:52:42;9.15;;;5.10;;
10705;SDS011;5404;42.656;23.336;2023-04-25T07:55:07;11.52;;;5.97;;
10705;SDS011;5404;42.656;23.336;2023-04-25T07:57:33;15.30;;;5.93;;
10705;SDS011;5404;42.656;23.336;2023-04-25T07:59:59;19.33;;;6.50;;
10705;SDS011;5404;42.656;23.336;2023-04-25T08:02:25;19.52;;;5.53;;
10705;SDS011;5404;42.656;23.336;2023-04-25T08:04:53;15.27;;;5.07;;
10705;SDS011;5404;42.656;23.336;2023-04-25T08:07:18;9.13;;;4.85;;
10705;SDS011;5404;42.656;23.336;2023-04-25T08:09:44;8.02;;;5.00;;
10705;SDS011;5404;42.656;23.336;2023-04-25T08:12:10;15.20;;;6.00;;
10705;SDS011;5404;42.656;23.336;2023-04-25T08:14:35;13.73;;;6.90;;
10705;SDS011;5404;42.656;23.336;2023-04-25T08:17:02;9.30;;;5.85;;
10705;SDS011;5404;42.656;23.336;2023-04-25T08:19:29;12.05;;;5.65;;
10705;SDS011;5404;42.656;23.336;2023-04-25T08:21:57;11.57;;;5.95;;
10705;SDS011;5404;42.656;23.336;2023-04-25T08:24:22;10.27;;;6.35;;
10705;SDS011;5404;42.656;23.336;2023-04-25T08:26:48;11.50;;;5.28;;
10705;SDS011;5404;42.656;23.336;2023-04-25T08:29:14;16.92;;;5.00;;
10705;SDS011;5404;42.656;23.336;2023-04-25T08:31:40;10.48;;;4.38;;
10705;SDS011;5404;42.656;23.336;2023-04-25T08:34:05;7.90;;;4.18;;
10705;SDS011;5404;42.656;23.336;2023-04-25T08:36:31;15.27;;;4.43;;
10705;SDS011;5404;42.656;23.336;2023-04-25T08:38:57;15.10;;;5.75;;
10705;SDS011;5404;42.656;23.336;2023-04-25T08:41:23;11.25;;;4.68;;
10705;SDS011;5404;42.656;23.336;2023-04-25T08:43:51;8.23;;;4.43;;
10705;SDS011;5404;42.656;23.336;2023-04-25T08:46:18;16.85;;;5.50;;
10705;SDS011;5404;42.656;23.336;2023-04-25T08:48:44;4.60;;;2.65;;
10705;SDS011;5404;42.656;23.336;2023-04-25T08:51:15;3.80;;;2.60;;
10705;SDS011;5404;42.656;23.336;2023-04-25T08:53:50;10.70;;;3.50;;
10705;SDS011;5404;42.656;23.336;2023-04-25T08:56:17;9.85;;;4.05;;
10705;SDS011;5404;42.656;23.336;2023-04-25T08:58:45;7.68;;;4.15;;
10705;SDS011;5404;42.656;23.336;2023-04-25T09:01:13;14.57;;;7.63;;
10705;SDS011;5404;42.656;23.336;2023-04-25T09:03:39;18.15;;;7.82;;
10705;SDS011;5404;42.656;23.336;2023-04-25T09:06:04;16.98;;;8.02;;
10705;SDS011;5404;42.656;23.336;2023-04-25T09:08:30;16.23;;;6.32;;
10705;SDS011;5404;42.656;23.336;2023-04-25T09:10:56;11.60;;;6.70;;
10705;SDS011;5404;42.656;23.336;2023-04-25T09:13:25;13.75;;;7.18;;
10705;SDS011;5404;42.656;23.336;2023-04-25T09:15:53;8.48;;;5.72;;
10705;SDS011;5404;42.656;23.336;2023-04-25T09:18:25;14.50;;;7.45;;
10705;SDS011;5404;42.656;23.336;2023-04-25T09:20:55;10.88;;;6.30;;
10705;SDS011;5404;42.656;23.336;2023-04-25T09:23:21;13.02;;;6.78;;
10705;SDS011;5404;42.656;23.336;2023-04-25T09:25:48;13.95;;;6.60;;
10705;SDS011;5404;42.656;23.336;2023-04-25T09:28:15;14.85;;;7.18;;
10705;SDS011;5404;42.656;23.336;2023-04-25T09:30:42;16.48;;;6.97;;
10705;SDS011;5404;42.656;23.336;2023-04-25T09:33:09;9.63;;;5.95;;
10705;SDS011;5404;42.656;23.336;2023-04-25T09:35:36;18.70;;;7.20;;
10705;SDS011;5404;42.656;23.336;2023-04-25T09:38:13;24.48;;;7.25;;
10705;SDS011;5404;42.656;23.336;2023-04-25T09:40:44;31.50;;;7.65;;
10705;SDS011;5404;42.656;23.336;2023-04-25T09:43:20;22.70;;;7.25;;
10705;SDS011;5404;42.656;23.336;2023-04-25T09:45:50;17.48;;;6.25;;
10705;SDS011;5404;42.656;23.336;2023-04-25T09:48:18;12.40;;;6.78;;
10705;SDS011;5404;42.656;23.336;2023-04-25T09:50:45;15.98;;;7.25;;
10705;SDS011;5404;42.656;23.336;2023-04-25T09:53:28;16.20;;;7.75;;
10705;SDS011;5404;42.656;23.336;2023-04-25T09:55:54;17.88;;;7.85;;
10705;SDS011;5404;42.656;23.336;2023-04-25T09:58:21;16.52;;;6.63;;
10705;SDS011;5404;42.656;23.336;2023-04-25T10:00:50;22.85;;;7.22;;
10705;SDS011;5404;42.656;23.336;2023-04-25T10:03:20;8.05;;;5.50;;
10705;SDS011;5404;42.656;23.336;2023-04-25T10:05:50;13.48;;;4.72;;
10705;SDS011;5404;42.656;23.336;2023-04-25T10:08:17;15.52;;;4.50;;
10705;SDS011;5404;42.656;23.336;2023-04-25T10:10:44;9.80;;;4.72;;
10705;SDS011;5404;42.656;23.336;2023-04-25T10:13:12;11.95;;;3.75;;
10705;SDS011;5404;42.656;23.336;2023-04-25T10:15:39;17.08;;;5.60;;
10705;SDS011;5404;42.656;23.336;2023-04-25T10:18:06;5.95;;;3.25;;
10705;SDS011;5404;42.656;23.336;2023-04-25T10:20:32;2.22;;;1.92;;
10705;SDS011;5404;42.656;23.336;2023-04-25T10:22:58;2.72;;;1.63;;
10705;SDS011;5404;42.656;23.336;2023-04-25T10:25:33;1.30;;;1.05;;
10705;SDS011;5404;42.656;23.336;2023-04-25T10:27:59;3.08;;;1.30;;
10705;SDS011;5404;42.656;23.336;2023-04-25T10:30:26;1.67;;;1.00;;
10705;SDS011;5404;42.656;23.336;2023-04-25T10:32:52;6.45;;;1.45;;
10705;SDS011;5404;42.656;23.336;2023-04-25T10:35:27;6.47;;;1.65;;
10705;SDS011;5404;42.656;23.336;2023-04-25T10:38:08;4.57;;;1.50;;
10705;SDS011;5404;42.656;23.336;2023-04-25T10:40:35;6.60;;;1.73;;
10705;SDS011;5404;42.656;23.336;2023-04-25T10:46:24;2.10;;;1.35;;
10705;SDS011;5404;42.656;23.336;2023-04-25T10:48:58;2.00;;;1.00;;
10705;SDS011;5404;42.656;23.336;2023-04-25T10:51:29;4.72;;;1.30;;
10705;SDS011;5404;42.656;23.336;2023-04-25T10:56:33;5.28;;;1.75;;
10705;SDS011;5404;42.656;23.336;2023-04-25T11:04:25;3.50;;;1.42;;
10705;SDS011;5404;42.656;23.336;2023-04-25T11:07:03;6.93;;;1.25;;
10705;SDS011;5404;42.656;23.336;2023-04-25T11:09:34;4.65;;;1.30;;
10705;SDS011;5404;42.656;23.336;2023-04-25T11:12:00;4.80;;;1.30;;
10705;SDS011;5404;42.656;23.336;2023-04-25T11:14:26;3.88;;;1.73;;
10705;SDS011;5404;42.656;23.336;2023-04-25T11:16:58;5.78;;;3.08;;
10705;SDS011;5404;42.656;23.336;2023-04-25T11:19:25;7.07;;;4.55;;
10705;SDS011;5404;42.656;23.336;2023-04-25T11:21:54;2.17;;;0.90;;
10705;SDS011;5404;42.656;23.336;2023-04-25T11:24:30;7.57;;;1.20;;
10705;SDS011;5404;42.656;23.336;2023-04-25T11:27:00;4.85;;;1.40;;
10705;SDS011;5404;42.656;23.336;2023-04-25T11:29:28;4.10;;;1.40;;
10705;SDS011;5404;42.656;23.336;2023-04-25T11:31:58;3.00;;;1.65;;
10705;SDS011;5404;42.656;23.336;2023-04-25T11:34:24;4.13;;;1.60;;
10705;SDS011;5404;42.656;23.336;2023-04-25T11:36:51;8.82;;;1.60;;
10705;SDS011;5404;42.656;23.336;2023-04-25T11:39:20;3.22;;;1.70;;
10705;SDS011;5404;42.656;23.336;2023-04-25T11:41:46;4.85;;;2.40;;
10705;SDS011;5404;42.656;23.336;2023-04-25T11:44:15;7.72;;;1.80;;
10705;SDS011;5404;42.656;23.336;2023-04-25T11:46:42;1.13;;;1.02;;
10705;SDS011;5404;42.656;23.336;2023-04-25T11:49:08;2.80;;;1.63;;
10705;SDS011;5404;42.656;23.336;2023-04-25T11:51:40;6.15;;;1.30;;
10705;SDS011;5404;42.656;23.336;2023-04-25T11:54:10;1.23;;;1.13;;
10705;SDS011;5404;42.656;23.336;2023-04-25T11:56:42;5.10;;;1.20;;
10705;SDS011;5404;42.656;23.336;2023-04-25T11:59:08;3.17;;;1.20;;
10705;SDS011;5404;42.656;23.336;2023-04-25T12:01:35;1.50;;;1.08;;
10705;SDS011;5404;42.656;23.336;2023-04-25T12:06:51;1.95;;;0.82;;
10705;SDS011;5404;42.656;23.336;2023-04-25T12:09:19;3.20;;;1.55;;
10705;SDS011;5404;42.656;23.336;2023-04-25T12:11:52;1.80;;;1.50;;
10705;SDS011;5404;42.656;23.336;2023-04-25T12:14:22;1.55;;;1.38;;
10705;SDS011;5404;42.656;23.336;2023-04-25T12:16:52;3.35;;;1.60;;
10705;SDS011;5404;42.656;23.336;2023-04-25T12:19:21;4.55;;;2.13;;
10705;SDS011;5404;42.656;23.336;2023-04-25T12:21:47;2.47;;;1.77;;
10705;SDS011;5404;42.656;23.336;2023-04-25T12:24:14;3.17;;;1.80;;
10705;SDS011;5404;42.656;23.336;2023-04-25T12:26:51;1.52;;;1.38;;
10705;SDS011;5404;42.656;23.336;2023-04-25T12:29:19;2.40;;;1.45;;
10705;SDS011;5404;42.656;23.336;2023-04-25T12:31:46;3.60;;;1.38;;
10705;SDS011;5404;42.656;23.336;2023-04-25T12:34:12;4.82;;;1.40;;
10705;SDS011;5404;42.656;23.336;2023-04-25T12:36:37;2.25;;;1.80;;
10705;SDS011;5404;42.656;23.336;2023-04-25T12:39:04;2.67;;;1.33;;
10705;SDS011;5404;42.656;23.336;2023-04-25T12:41:30;2.08;;;1.48;;
10705;SDS011;5404;42.656;23.336;2023-04-25T12:43:56;1.20;;;1.10;;
10705;SDS011;5404;42.656;23.336;2023-04-25T12:46:21;2.65;;;1.02;;
10705;SDS011;5404;42.656;23.336;2023-04-25T12:48:49;7.43;;;1.60;;
10705;SDS011;5404;42.656;23.336;2023-04-25T12:51:14;3.83;;;1.40;;
10705;SDS011;5404;42.656;23.336;2023-04-25T12:53:40;1.85;;;1.40;;
10705;SDS011;5404;42.656;23.336;2023-04-25T12:56:09;1.50;;;1.13;;
10705;SDS011;5404;42.656;23.336;2023-04-25T12:58:36;5.65;;;1.42;;
10705;SDS011;5404;42.656;23.336;2023-04-25T13:01:02;3.22;;;2.00;;
10705;SDS011;5404;42.656;23.336;2023-04-25T13:03:30;6.38;;;1.95;;
10705;SDS011;5404;42.656;23.336;2023-04-25T13:05:56;1.88;;;1.30;;
10705;SDS011;5404;42.656;23.336;2023-04-25T13:08:22;3.03;;;1.55;;
10705;SDS011;5404;42.656;23.336;2023-04-25T13:10:47;21.75;;;1.90;;
10705;SDS011;5404;42.656;23.336;2023-04-25T13:13:13;2.15;;;1.30;;
10705;SDS011;5404;42.656;23.336;2023-04-25T13:15:38;7.95;;;2.60;;
10705;SDS011;5404;42.656;23.336;2023-04-25T13:18:04;7.53;;;4.15;;
10705;SDS011;5404;42.656;23.336;2023-04-25T13:20:32;4.07;;;1.85;;
10705;SDS011;5404;42.656;23.336;2023-04-25T13:22:58;5.38;;;2.72;;
10705;SDS011;5404;42.656;23.336;2023-04-25T13:25:23;5.55;;;2.47;;
10705;SDS011;5404;42.656;23.336;2023-04-25T13:27:49;5.45;;;2.15;;
10705;SDS011;5404;42.656;23.336;2023-04-25T13:30:16;7.00;;;2.30;;
10705;SDS011;5404;42.656;23.336;2023-04-25T13:32:42;3.83;;;2.22;;
10705;SDS011;5404;42.656;23.336;2023-04-25T13:35:08;6.20;;;3.25;;
10705;SDS011;5404;42.656;23.336;2023-04-25T13:37:35;2.30;;;2.08;;
10705;SDS011;5404;42.656;23.336;2023-04-25T13:40:02;5.10;;;2.70;;
10705;SDS011;5404;42.656;23.336;2023-04-25T13:42:30;8.52;;;3.15;;
10705;SDS011;5404;42.656;23.336;2023-04-25T13:44:56;10.80;;;3.53;;
10705;SDS011;5404;42.656;23.336;2023-04-25T13:47:22;8.30;;;3.22;;
10705;SDS011;5404;42.656;23.336;2023-04-25T13:49:48;6.97;;;2.38;;
10705;SDS011;5404;42.656;23.336;2023-04-25T13:52:14;2.72;;;1.80;;
10705;SDS011;5404;42.656;23.336;2023-04-25T13:54:42;5.43;;;2.53;;
10705;SDS011;5404;42.656;23.336;2023-04-25T13:57:08;3.10;;;2.28;;
10705;SDS011;5404;42.656;23.336;2023-04-25T13:59:35;3.15;;;2.05;;
10705;SDS011;5404;42.656;23.336;2023-04-25T14:02:00;3.85;;;1.80;;
10705;SDS011;5404;42.656;23.336;2023-04-25T14:04:26;2.55;;;2.00;;
10705;SDS011;5404;42.656;23.336;2023-04-25T14:06:52;5.13;;;2.03;;
10705;SDS011;5404;42.656;23.336;2023-04-25T14:09:18;2.50;;;1.70;;
10705;SDS011;5404;42.656;23.336;2023-04-25T14:11:46;9.30;;;1.90;;
10705;SDS011;5404;42.656;23.336;2023-04-25T14:14:11;1.48;;;1.20;;
10705;SDS011;5404;42.656;23.336;2023-04-25T14:16:38;1.52;;;1.08;;
10705;SDS011;5404;42.656;23.336;2023-04-25T14:19:03;2.22;;;1.20;;
10705;SDS011;5404;42.656;23.336;2023-04-25T14:21:29;2.72;;;1.25;;
10705;SDS011;5404;42.656;23.336;2023-04-25T14:23:57;1.38;;;1.23;;
10705;SDS011;5404;42.656;23.336;2023-04-25T14:26:22;1.13;;;1.08;;
10705;SDS011;5404;42.656;23.336;2023-04-25T14:28:48;2.65;;;1.20;;
10705;SDS011;5404;42.656;23.336;2023-04-25T14:31:13;5.55;;;1.80;;
10705;SDS011;5404;42.656;23.336;2023-04-25T14:33:40;2.85;;;1.55;;
10705;SDS011;5404;42.656;23.336;2023-04-25T14:36:10;1.35;;;1.25;;
10705;SDS011;5404;42.656;23.336;2023-04-25T14:38:38;3.58;;;1.85;;
10705;SDS011;5404;42.656;23.336;2023-04-25T14:41:03;7.45;;;2.83;;
10705;SDS011;5404;42.656;23.336;2023-04-25T14:43:30;5.00;;;3.03;;
10705;SDS011;5404;42.656;23.336;2023-04-25T14:45:56;3.28;;;2.03;;
10705;SDS011;5404;42.656;23.336;2023-04-25T14:48:21;5.05;;;2.55;;